Time;durP1;ratioP1;P1;durP2;ratioP2;P2;SDS_P1;SDS_P2;PMS_P1;PMS_P2;Temp;Humidity;BMP_temperature;BMP_pressure;BME280_temperature;BME280_humidity;BME280_pressure;Samples;Min_cycle;Max_cycle;Signal;HPM_P1;HPM_P2
2023/06/27 00:01:15;;;;;;;2.00;1.48;;;17.30;99.90;;;;;;5011765;28;20036;-73
2023/06/27 00:03:40;;;;;;;4.30;1.15;;;17.30;99.90;;;;;;5030951;28;20038;-72
2023/06/27 00:06:06;;;;;;;3.67;1.13;;;17.30;99.90;;;;;;5012120;28;20120;-72
2023/06/27 00:08:32;;;;;;;2.80;0.93;;;17.30;99.90;;;;;;5029687;28;20042;-72
2023/06/27 00:10:57;;;;;;;4.15;1.70;;;17.40;99.90;;;;;;5011925;28;20041;-72
2023/06/27 00:13:23;;;;;;;2.70;1.45;;;17.40;99.90;;;;;;5011519;28;20049;-73
2023/06/27 00:15:52;;;;;;;3.85;1.17;;;17.40;99.90;;;;;;5012004;28;20084;-71
2023/06/27 00:18:21;;;;;;;2.53;1.15;;;17.40;99.90;;;;;;5029475;28;20485;-73
2023/06/27 00:20:51;;;;;;;6.57;1.03;;;17.40;99.90;;;;;;5011571;28;20037;-72
2023/06/27 00:23:24;;;;;;;7.57;1.33;;;17.40;99.90;;;;;;5011755;28;20033;-74
2023/06/27 00:25:50;;;;;;;5.00;1.50;;;17.40;99.90;;;;;;5011895;28;20045;-72
2023/06/27 00:28:16;;;;;;;4.05;1.17;;;17.40;99.90;;;;;;5029416;28;20030;-72
2023/06/27 00:30:42;;;;;;;5.72;1.50;;;17.40;99.90;;;;;;5029203;28;20041;-73
2023/06/27 00:33:11;;;;;;;5.28;1.25;;;17.40;99.90;;;;;;5011733;28;20033;-73
2023/06/27 00:35:39;;;;;;;6.63;1.60;;;17.40;99.90;;;;;;5028759;28;20389;-71
2023/06/27 00:38:05;;;;;;;4.68;1.23;;;17.40;99.90;;;;;;5011855;28;20029;-73
2023/06/27 00:40:31;;;;;;;6.10;1.75;;;17.40;99.90;;;;;;5029136;28;20045;-73
2023/06/27 00:42:56;;;;;;;3.75;1.42;;;17.40;99.90;;;;;;5028731;28;20033;-72
2023/06/27 00:45:23;;;;;;;5.15;1.63;;;17.30;99.90;;;;;;5011476;28;20449;-72
2023/06/27 00:47:53;;;;;;;4.28;1.40;;;17.30;99.90;;;;;;5029028;28;20042;-73
2023/06/27 00:50:21;;;;;;;8.00;2.53;;;17.30;99.90;;;;;;5027466;28;20030;-73
2023/06/27 00:52:48;;;;;;;6.38;1.50;;;17.30;99.90;;;;;;5010118;28;20049;-70
2023/06/27 00:55:13;;;;;;;3.05;1.17;;;17.40;99.90;;;;;;5027778;28;20400;-73
2023/06/27 00:57:40;;;;;;;4.43;1.40;;;17.30;99.90;;;;;;5010786;28;20040;-73
2023/06/27 01:00:10;;;;;;;6.45;1.33;;;17.30;99.90;;;;;;5029210;28;20037;-73
2023/06/27 01:02:36;;;;;;;5.90;2.10;;;17.40;99.90;;;;;;5027980;28;20071;-71
2023/06/27 01:05:02;;;;;;;5.65;1.15;;;17.30;99.90;;;;;;5011804;28;20042;-72
2023/06/27 01:07:36;;;;;;;6.03;1.85;;;17.40;99.90;;;;;;5010810;28;20029;-73
2023/06/27 01:10:21;;;;;;;7.47;1.42;;;17.30;99.90;;;;;;5025507;28;20046;-72
2023/06/27 01:13:13;;;;;;;7.57;1.60;;;17.20;99.90;;;;;;5010205;28;20151;-72
2023/06/27 01:15:40;;;;;;;5.40;1.65;;;17.10;99.90;;;;;;5011743;28;20623;-73
2023/06/27 01:18:08;;;;;;;6.10;1.42;;;17.10;99.90;;;;;;5029051;28;20777;-72
2023/06/27 01:20:34;;;;;;;4.43;1.70;;;17.00;99.90;;;;;;5027879;28;20041;-74
2023/06/27 01:23:24;;;;;;;9.73;1.70;;;17.00;99.90;;;;;;5028862;28;20033;-71
2023/06/27 01:25:53;;;;;;;8.48;2.08;;;16.90;99.90;;;;;;5010235;28;20107;-72
2023/06/27 01:28:19;;;;;;;10.13;1.55;;;16.90;99.90;;;;;;5010429;28;20037;-72
2023/06/27 01:30:45;;;;;;;6.10;1.73;;;16.80;99.90;;;;;;5028209;28;20041;-72
2023/06/27 01:33:19;;;;;;;8.43;1.67;;;16.80;99.90;;;;;;5010863;28;20041;-72
2023/06/27 01:36:04;;;;;;;7.30;2.00;;;16.70;99.90;;;;;;5009718;28;20072;-72
2023/06/27 01:38:43;;;;;;;10.70;1.98;;;16.60;99.90;;;;;;5007073;28;20045;-73
2023/06/27 01:41:16;;;;;;;10.48;2.85;;;16.60;99.90;;;;;;5027954;28;20033;-73
2023/06/27 01:43:43;;;;;;;6.53;2.15;;;16.50;99.90;;;;;;5010047;28;20041;-73
2023/06/27 01:46:09;;;;;;;8.80;2.03;;;16.50;99.90;;;;;;5010335;28;20037;-73
2023/06/27 01:48:37;;;;;;;9.27;1.83;;;16.60;99.90;;;;;;5009440;28;20110;-73
2023/06/27 01:51:09;;;;;;;6.60;1.88;;;16.50;99.90;;;;;;5010277;28;20030;-73
2023/06/27 01:53:36;;;;;;;6.32;1.63;;;16.50;99.90;;;;;;5009663;28;20132;-72
2023/06/27 01:56:02;;;;;;;6.88;1.67;;;16.50;99.90;;;;;;5028153;28;20079;-72
2023/06/27 01:58:28;;;;;;;6.70;1.55;;;16.50;99.90;;;;;;5009513;28;20038;-71
2023/06/27 02:00:54;;;;;;;6.93;1.52;;;16.50;99.90;;;;;;5009419;28;20060;-73
2023/06/27 02:03:20;;;;;;;6.57;2.08;;;16.50;99.90;;;;;;5009365;28;20433;-72
2023/06/27 02:05:45;;;;;;;7.50;1.83;;;16.40;99.90;;;;;;5009934;28;20049;-73
2023/06/27 02:08:11;;;;;;;5.38;1.75;;;16.40;99.90;;;;;;5010326;28;20037;-74
2023/06/27 02:10:36;;;;;;;4.72;1.83;;;16.40;99.90;;;;;;5026673;28;20053;-74
2023/06/27 02:13:03;;;;;;;7.95;2.50;;;16.40;99.90;;;;;;5009348;28;20473;-71
2023/06/27 02:15:29;;;;;;;3.58;1.52;;;16.40;99.90;;;;;;5012672;28;20157;-73
2023/06/27 02:17:56;;;;;;;6.10;1.60;;;16.40;99.90;;;;;;5009395;28;20148;-72
2023/06/27 02:20:21;;;;;;;8.98;2.00;;;16.40;99.90;;;;;;5023346;28;20048;-73
2023/06/27 02:22:47;;;;;;;8.75;2.13;;;16.40;99.90;;;;;;5009066;28;20397;-73
2023/06/27 02:25:13;;;;;;;5.82;2.20;;;16.40;99.90;;;;;;5028285;28;20037;-72
2023/06/27 02:27:38;;;;;;;12.57;2.55;;;16.30;99.90;;;;;;5026629;28;20049;-72
2023/06/27 02:30:04;;;;;;;8.80;2.03;;;16.40;99.90;;;;;;5009533;28;20037;-72
2023/06/27 02:32:30;;;;;;;12.13;3.10;;;16.40;99.90;;;;;;5008956;28;20033;-73
2023/06/27 02:34:55;;;;;;;4.35;1.40;;;16.40;99.90;;;;;;5009346;28;20038;-72
2023/06/27 02:37:21;;;;;;;11.18;2.58;;;16.40;99.90;;;;;;5027228;28;20021;-73
2023/06/27 02:39:46;;;;;;;8.15;2.40;;;16.40;99.90;;;;;;5009086;28;20068;-72
2023/06/27 02:42:12;;;;;;;7.43;1.60;;;16.40;99.90;;;;;;5026944;28;20030;-73
2023/06/27 02:44:38;;;;;;;7.70;1.92;;;16.40;99.90;;;;;;5008587;28;20110;-73
2023/06/27 02:47:03;;;;;;;4.90;2.25;;;16.40;99.90;;;;;;5009551;28;20037;-73
2023/06/27 02:49:29;;;;;;;10.85;2.50;;;16.30;99.90;;;;;;5008978;28;20517;-72
2023/06/27 02:51:54;;;;;;;5.10;1.98;;;16.30;99.90;;;;;;5008832;28;20037;-72
2023/06/27 02:54:20;;;;;;;9.10;2.28;;;16.30;99.90;;;;;;5018867;28;20037;-73
2023/06/27 02:56:46;;;;;;;11.43;2.45;;;16.30;99.90;;;;;;5026416;28;20090;-72
2023/06/27 02:59:11;;;;;;;8.18;2.00;;;16.30;99.90;;;;;;5009557;28;20029;-72
2023/06/27 03:01:37;;;;;;;8.10;1.95;;;16.30;99.90;;;;;;5026017;28;20402;-71
2023/06/27 03:04:02;;;;;;;9.63;2.35;;;16.30;99.90;;;;;;5030764;28;20116;-72
2023/06/27 03:06:28;;;;;;;12.40;2.42;;;16.40;99.90;;;;;;5026580;28;20040;-74
2023/06/27 03:08:54;;;;;;;13.18;2.13;;;16.40;99.90;;;;;;5009075;28;21138;-74
2023/06/27 03:11:20;;;;;;;14.10;2.63;;;16.40;99.90;;;;;;5026467;28;20689;-73
2023/06/27 03:13:45;;;;;;;10.57;2.05;;;16.40;99.90;;;;;;5008312;28;20681;-71
2023/06/27 03:16:11;;;;;;;12.55;2.15;;;16.40;99.90;;;;;;5015424;28;20037;-72
2023/06/27 03:18:37;;;;;;;9.27;2.38;;;16.40;99.90;;;;;;5012314;28;20030;-73
2023/06/27 03:21:02;;;;;;;10.43;1.98;;;16.40;99.90;;;;;;5030975;28;20029;-73
2023/06/27 03:23:28;;;;;;;9.70;2.28;;;16.40;99.90;;;;;;5012451;28;20375;-72
2023/06/27 03:25:55;;;;;;;7.80;1.83;;;16.40;99.90;;;;;;5013211;28;20041;-73
2023/06/27 03:28:20;;;;;;;11.55;3.10;;;16.40;99.90;;;;;;5012970;28;20034;-73
2023/06/27 03:30:46;;;;;;;6.95;2.03;;;16.40;99.90;;;;;;5012729;28;20037;-73
2023/06/27 03:33:12;;;;;;;9.30;2.20;;;16.40;99.90;;;;;;5008237;28;20037;-73
2023/06/27 03:35:38;;;;;;;14.98;3.13;;;16.30;99.90;;;;;;5011901;28;20103;-75
2023/06/27 03:38:03;;;;;;;11.95;2.58;;;16.30;99.90;;;;;;5013014;28;20440;-74
2023/06/27 03:40:29;;;;;;;13.35;2.78;;;16.30;99.90;;;;;;5012322;28;20037;-72
2023/06/27 03:42:56;;;;;;;5.05;1.70;;;16.30;99.90;;;;;;5029933;28;20042;-75
2023/06/27 03:45:22;;;;;;;10.63;2.63;;;16.30;99.90;;;;;;5012401;28;20088;-72
2023/06/27 03:47:47;;;;;;;11.65;2.38;;;16.30;99.90;;;;;;5030044;28;20029;-72
2023/06/27 03:50:13;;;;;;;8.52;2.78;;;16.30;99.90;;;;;;5012648;28;20042;-72
2023/06/27 03:52:39;;;;;;;7.95;2.53;;;16.30;99.90;;;;;;5011349;28;20030;-72
2023/06/27 03:55:05;;;;;;;11.32;2.20;;;16.40;99.90;;;;;;5012678;28;20033;-73
2023/06/27 03:57:31;;;;;;;13.68;2.78;;;16.40;99.90;;;;;;5029582;28;20544;-72
2023/06/27 03:59:56;;;;;;;8.35;2.90;;;16.40;99.90;;;;;;5012240;28;20108;-73
2023/06/27 04:02:22;;;;;;;12.10;2.20;;;16.40;99.90;;;;;;5011652;28;20030;-73
2023/06/27 04:04:47;;;;;;;7.88;2.40;;;16.40;99.90;;;;;;5015317;28;20032;-72
2023/06/27 04:07:14;;;;;;;11.73;2.33;;;16.40;99.90;;;;;;5012610;28;20367;-72
2023/06/27 04:09:40;;;;;;;10.15;2.53;;;16.50;99.90;;;;;;5029502;28;20447;-73
2023/06/27 04:12:08;;;;;;;8.48;2.75;;;16.50;99.90;;;;;;5011931;28;20084;-72
2023/06/27 04:14:34;;;;;;;4.35;1.55;;;16.50;99.90;;;;;;5011643;28;20047;-73
2023/06/27 04:16:59;;;;;;;6.85;2.30;;;16.60;99.90;;;;;;5014017;28;20555;-72
2023/06/27 04:19:25;;;;;;;13.55;2.22;;;16.60;99.90;;;;;;5011557;28;20037;-71
2023/06/27 04:21:50;;;;;;;7.25;2.28;;;16.60;99.90;;;;;;5011410;28;20546;-72
2023/06/27 04:24:16;;;;;;;12.10;2.83;;;16.60;99.90;;;;;;5011520;28;20067;-73
2023/06/27 04:26:42;;;;;;;6.78;1.80;;;16.60;99.90;;;;;;5028061;28;20083;-72
2023/06/27 04:29:08;;;;;;;10.48;2.38;;;16.60;99.90;;;;;;5012502;28;20029;-72
2023/06/27 04:31:34;;;;;;;15.70;2.33;;;16.60;99.90;;;;;;5029368;28;20037;-73
2023/06/27 04:33:59;;;;;;;9.07;2.65;;;16.60;99.90;;;;;;5029096;28;20037;-73
2023/06/27 04:36:28;;;;;;;8.95;2.10;;;16.60;99.90;;;;;;5029503;28;20087;-73
2023/06/27 04:38:53;;;;;;;11.77;2.78;;;16.70;99.90;;;;;;5011712;28;20053;-71
2023/06/27 04:41:19;;;;;;;11.15;2.53;;;16.70;99.90;;;;;;5011025;28;20084;-71
2023/06/27 04:43:45;;;;;;;6.95;2.30;;;16.70;99.90;;;;;;5029006;28;20037;-71
2023/06/27 04:46:10;;;;;;;11.48;2.00;;;16.70;99.90;;;;;;5029589;28;20618;-71
2023/06/27 04:48:36;;;;;;;9.38;2.40;;;16.70;99.90;;;;;;5028423;28;20394;-71
2023/06/27 04:51:02;;;;;;;9.98;2.00;;;16.70;99.90;;;;;;5011287;28;20091;-73
2023/06/27 04:53:27;;;;;;;5.38;1.88;;;16.70;99.90;;;;;;5010898;28;20041;-72
2023/06/27 04:55:53;;;;;;;8.43;2.17;;;16.80;99.90;;;;;;5028945;28;20079;-72
2023/06/27 04:58:19;;;;;;;8.32;2.15;;;16.70;99.90;;;;;;5029559;28;20034;-72
2023/06/27 05:00:47;;;;;;;10.20;2.70;;;16.80;99.90;;;;;;5009046;28;20510;-71
2023/06/27 05:03:13;;;;;;;7.97;1.92;;;16.70;99.90;;;;;;5026050;28;20037;-70
2023/06/27 05:05:39;;;;;;;10.05;2.20;;;16.70;99.90;;;;;;5009257;28;20505;-71
2023/06/27 05:08:05;;;;;;;14.48;2.60;;;16.70;99.90;;;;;;5010213;28;20072;-70
2023/06/27 05:10:31;;;;;;;5.93;1.98;;;16.70;99.90;;;;;;5009309;28;20108;-71
2023/06/27 05:12:57;;;;;;;8.50;1.85;;;16.70;99.90;;;;;;5009610;28;20490;-71
2023/06/27 05:15:23;;;;;;;4.47;1.77;;;16.70;99.90;;;;;;5027500;28;20128;-71
2023/06/27 05:17:53;;;;;;;7.20;2.08;;;16.70;99.90;;;;;;5009718;28;20876;-71
2023/06/27 05:20:19;;;;;;;5.68;1.85;;;16.60;99.90;;;;;;5009440;28;20029;-73
2023/06/27 05:22:45;;;;;;;7.03;2.13;;;16.70;99.90;;;;;;5027525;28;20110;-71
2023/06/27 05:25:11;;;;;;;5.88;2.10;;;16.70;99.90;;;;;;5027534;28;20470;-71
2023/06/27 05:27:37;;;;;;;10.70;2.80;;;16.70;99.90;;;;;;5026511;28;20036;-73
2023/06/27 05:30:03;;;;;;;7.93;2.10;;;16.70;99.90;;;;;;5023790;28;20044;-72
2023/06/27 05:32:29;;;;;;;6.22;2.13;;;16.70;99.90;;;;;;5009363;28;20033;-73
2023/06/27 05:34:54;;;;;;;9.68;2.33;;;16.70;99.90;;;;;;5009126;28;21425;-71
2023/06/27 05:37:20;;;;;;;8.43;2.00;;;16.80;99.90;;;;;;5026621;28;20037;-70
2023/06/27 05:39:46;;;;;;;7.68;2.40;;;16.80;99.90;;;;;;5026965;28;20037;-72
2023/06/27 05:42:11;;;;;;;8.25;1.90;;;16.90;99.90;;;;;;5027435;28;20025;-71
2023/06/27 05:44:37;;;;;;;5.68;1.65;;;17.00;99.90;;;;;;5026606;28;20045;-71
2023/06/27 05:47:03;;;;;;;7.15;1.85;;;17.10;99.90;;;;;;5027544;28;20140;-72
2023/06/27 05:49:29;;;;;;;9.23;2.00;;;17.20;99.90;;;;;;5027124;28;20037;-71
2023/06/27 05:51:54;;;;;;;6.30;2.00;;;17.40;99.90;;;;;;5026597;28;20034;-71
2023/06/27 05:54:20;;;;;;;14.15;2.13;;;17.60;99.90;;;;;;5026265;28;20045;-71
2023/06/27 05:56:46;;;;;;;11.23;2.38;;;17.90;99.90;;;;;;5026790;28;20072;-72
2023/06/27 05:59:11;;;;;;;7.43;1.83;;;18.30;99.90;;;;;;5027157;28;20069;-71
2023/06/27 06:01:37;;;;;;;18.73;2.85;;;18.80;99.90;;;;;;5025874;28;20438;-71
2023/06/27 06:04:04;;;;;;;7.15;1.80;;;19.40;99.90;;;;;;5027525;28;20038;-71
2023/06/27 06:06:30;;;;;;;5.78;1.00;;;19.90;99.90;;;;;;5027098;28;20080;-71
2023/06/27 06:08:55;;;;;;;7.95;1.52;;;20.20;99.90;;;;;;5007100;28;20853;-71
2023/06/27 06:11:21;;;;;;;7.15;1.73;;;20.50;99.90;;;;;;5026266;28;20555;-72
2023/06/27 06:13:46;;;;;;;8.27;1.85;;;20.60;99.90;;;;;;5005640;28;20060;-71
2023/06/27 06:16:12;;;;;;;7.47;2.05;;;20.70;99.90;;;;;;5009262;28;20068;-72
2023/06/27 06:18:38;;;;;;;8.43;1.90;;;20.80;99.90;;;;;;5005437;28;20049;-70
2023/06/27 06:21:03;;;;;;;5.65;1.55;;;20.90;99.90;;;;;;5026748;28;20113;-71
2023/06/27 06:23:29;;;;;;;4.30;0.80;;;21.00;99.90;;;;;;5026489;28;20765;-70
2023/06/27 06:25:54;;;;;;;6.10;1.17;;;21.00;99.90;;;;;;5009096;28;21599;-71
2023/06/27 06:28:20;;;;;;;2.42;0.68;;;21.10;99.90;;;;;;5026930;28;20026;-71
2023/06/27 06:30:46;;;;;;;5.18;0.75;;;21.10;99.90;;;;;;5026721;28;20045;-71
2023/06/27 06:33:11;;;;;;;4.80;0.40;;;21.00;99.90;;;;;;5008940;28;20036;-70
2023/06/27 06:35:37;;;;;;;3.15;0.60;;;21.20;99.90;;;;;;5025678;28;20049;-72
2023/06/27 06:38:02;;;;;;;4.85;0.77;;;21.20;99.90;;;;;;5008658;28;20114;-72
2023/06/27 06:40:30;;;;;;;3.13;0.82;;;21.20;99.90;;;;;;5025915;28;20032;-71
2023/06/27 06:42:55;;;;;;;6.88;0.93;;;21.40;99.90;;;;;;5025838;28;20566;-72
2023/06/27 06:45:21;;;;;;;6.57;0.65;;;21.50;99.90;;;;;;5025911;28;20116;-70
2023/06/27 06:47:46;;;;;;;5.28;1.15;;;21.70;99.90;;;;;;5026004;28;20509;-70
2023/06/27 06:50:12;;;;;;;2.38;0.50;;;21.90;99.90;;;;;;5025482;28;20057;-71
2023/06/27 06:52:38;;;;;;;3.55;0.57;;;22.10;99.90;;;;;;5007045;28;20057;-72
2023/06/27 06:55:04;;;;;;;2.05;0.35;;;22.20;99.90;;;;;;5026436;28;20114;-70
2023/06/27 06:57:30;;;;;;;4.70;0.93;;;22.50;99.60;;;;;;5008431;28;20041;-71
2023/06/27 06:59:55;;;;;;;1.75;0.57;;;22.70;98.20;;;;;;5025550;28;20030;-70
2023/06/27 07:02:21;;;;;;;5.07;0.55;;;22.90;98.10;;;;;;5024708;28;20033;-71
2023/06/27 07:04:46;;;;;;;3.15;0.65;;;23.00;97.60;;;;;;5007807;28;20061;-71
2023/06/27 07:07:12;;;;;;;1.30;0.25;;;23.40;98.00;;;;;;5008408;28;20567;-71
2023/06/27 07:09:37;;;;;;;1.35;0.50;;;23.80;96.90;;;;;;5003528;28;20051;-72
2023/06/27 07:12:03;;;;;;;2.70;0.68;;;24.10;95.50;;;;;;5026206;28;20057;-71
2023/06/27 07:14:29;;;;;;;3.88;1.02;;;24.70;94.70;;;;;;5025008;28;21615;-72
2023/06/27 07:16:54;;;;;;;10.27;0.70;;;25.30;94.20;;;;;;5008000;28;20048;-71
2023/06/27 07:19:20;;;;;;;3.03;0.50;;;25.40;93.10;;;;;;5025903;28;20448;-72
2023/06/27 07:21:45;;;;;;;5.90;1.52;;;25.10;92.90;;;;;;5004714;28;20482;-72
2023/06/27 07:24:12;;;;;;;3.53;0.80;;;24.80;92.80;;;;;;5008131;28;20100;-70
2023/06/27 07:26:37;;;;;;;1.15;0.50;;;24.70;92.60;;;;;;5024794;28;20037;-70
2023/06/27 07:29:03;;;;;;;1.65;0.73;;;24.80;93.30;;;;;;5025979;28;20088;-72
2023/06/27 07:31:28;;;;;;;4.05;0.73;;;25.20;92.70;;;;;;5007278;28;20464;-71
2023/06/27 07:33:55;;;;;;;4.88;0.57;;;25.30;93.00;;;;;;5025795;28;20087;-72
2023/06/27 07:36:20;;;;;;;4.18;0.65;;;25.30;91.00;;;;;;5007626;28;20413;-72
2023/06/27 07:38:46;;;;;;;5.93;0.85;;;24.80;91.10;;;;;;5025799;28;20091;-71
2023/06/27 07:41:12;;;;;;;1.85;0.35;;;24.60;91.40;;;;;;5025740;28;20041;-72
2023/06/27 07:43:38;;;;;;;1.73;0.30;;;24.50;91.90;;;;;;5024751;28;20540;-72
2023/06/27 07:46:04;;;;;;;3.17;0.55;;;24.40;91.70;;;;;;5008119;28;20037;-72
2023/06/27 07:48:29;;;;;;;4.38;0.73;;;25.00;91.60;;;;;;5024750;28;20029;-72
2023/06/27 07:50:55;;;;;;;6.72;0.90;;;25.80;90.70;;;;;;5025371;28;21775;-71
2023/06/27 07:53:21;;;;;;;3.70;0.50;;;26.60;89.90;;;;;;5024911;28;20038;-71
2023/06/27 07:55:46;;;;;;;3.55;0.85;;;26.40;87.90;;;;;;5024960;28;20446;-73
2023/06/27 07:58:12;;;;;;;1.75;0.82;;;26.70;86.70;;;;;;5008032;28;20033;-71
2023/06/27 08:00:38;;;;;;;2.38;0.70;;;27.40;85.80;;;;;;5007244;28;20033;-72
2023/06/27 08:03:04;;;;;;;2.28;0.47;;;27.30;84.90;;;;;;5011234;28;20060;-71
2023/06/27 08:05:34;;;;;;;4.03;0.82;;;27.30;85.70;;;;;;5013294;28;20486;-71
2023/06/27 08:08:00;;;;;;;2.25;0.77;;;27.00;84.90;;;;;;5029058;28;20029;-72
2023/06/27 08:10:27;;;;;;;2.28;0.50;;;26.60;84.80;;;;;;5028576;28;20038;-71
2023/06/27 08:12:53;;;;;;;2.65;0.55;;;25.80;84.90;;;;;;5010497;28;20037;-71
2023/06/27 08:15:19;;;;;;;5.15;0.75;;;25.50;86.80;;;;;;5028717;28;20513;-71
2023/06/27 08:17:45;;;;;;;5.55;0.60;;;25.30;86.10;;;;;;5028275;28;20041;-71
2023/06/27 08:20:11;;;;;;;3.20;0.70;;;25.00;86.50;;;;;;5028729;28;20537;-71
2023/06/27 08:22:36;;;;;;;2.85;0.70;;;24.50;87.80;;;;;;5009880;28;20840;-71
2023/06/27 08:25:02;;;;;;;2.33;0.43;;;24.10;87.70;;;;;;5029151;28;20112;-71
2023/06/27 08:27:28;;;;;;;3.47;0.20;;;23.70;89.30;;;;;;5028552;28;20567;-71
2023/06/27 08:29:53;;;;;;;1.85;0.32;;;23.50;90.00;;;;;;5028220;28;20095;-70
2023/06/27 08:32:19;;;;;;;1.75;0.47;;;23.30;90.90;;;;;;5028200;28;20030;-71
2023/06/27 08:34:44;;;;;;;1.00;0.30;;;23.20;89.90;;;;;;5010799;28;20045;-71
2023/06/27 08:37:10;;;;;;;0.75;0.45;;;23.10;90.70;;;;;;5025434;28;20076;-72
2023/06/27 08:39:36;;;;;;;4.13;0.43;;;23.00;91.00;;;;;;5027002;28;20045;-72
2023/06/27 08:42:02;;;;;;;1.92;0.35;;;23.00;90.70;;;;;;5028805;28;20493;-72
2023/06/27 08:44:28;;;;;;;2.38;0.70;;;22.80;90.20;;;;;;5028215;28;20033;-72
2023/06/27 08:46:58;;;;;;;1.35;0.20;;;22.70;90.30;;;;;;5027991;28;20472;-72
2023/06/27 08:49:26;;;;;;;;;;;22.60;90.80;;;;;;5010534;28;20091;-72
2023/06/27 08:51:56;;;;;;;6.82;0.68;;;22.50;90.30;;;;;;5009890;28;20003;-72
2023/06/27 08:54:37;;;;;;;1.30;0.50;;;22.40;90.40;;;;;;5027512;28;20038;-72
2023/06/27 08:57:05;;;;;;;3.40;0.45;;;22.40;91.20;;;;;;5008370;28;20424;-72
2023/06/27 08:59:35;;;;;;;3.50;0.50;;;22.20;91.20;;;;;;5025006;28;20029;-72
2023/06/27 09:02:01;;;;;;;3.33;0.52;;;22.20;91.10;;;;;;5012866;28;20037;-72
2023/06/27 09:04:27;;;;;;;2.70;0.60;;;22.20;91.60;;;;;;5029833;28;20037;-73
2023/06/27 09:06:54;;;;;;;2.97;0.25;;;22.20;91.30;;;;;;5010572;28;20116;-71
2023/06/27 09:09:21;;;;;;;2.33;0.70;;;22.20;91.10;;;;;;5006089;28;20034;-71
2023/06/27 09:11:50;;;;;;;2.90;0.43;;;22.10;91.50;;;;;;5026346;28;20053;-71
2023/06/27 09:14:15;;;;;;;2.10;0.35;;;22.00;91.90;;;;;;5008896;28;20036;-71
2023/06/27 09:16:41;;;;;;;2.88;1.02;;;22.00;91.70;;;;;;5011623;28;20042;-70
2023/06/27 09:19:07;;;;;;;6.70;0.43;;;22.00;91.10;;;;;;5009270;28;20603;-71
2023/06/27 09:21:34;;;;;;;5.22;0.68;;;22.00;91.30;;;;;;5026540;28;20107;-71
2023/06/27 09:24:12;;;;;;;3.10;0.35;;;22.00;91.40;;;;;;5008397;28;20124;-72
2023/06/27 09:26:38;;;;;;;0.85;0.32;;;22.10;91.80;;;;;;5023434;28;20045;-70
2023/06/27 09:29:04;;;;;;;2.28;0.30;;;22.20;91.60;;;;;;5022457;28;20509;-71
2023/06/27 09:31:30;;;;;;;4.93;0.50;;;22.30;91.80;;;;;;5008579;28;20432;-72
2023/06/27 09:34:13;;;;;;;1.63;0.40;;;22.30;91.40;;;;;;5008597;28;20083;-72
2023/06/27 09:36:40;;;;;;;8.63;0.68;;;22.20;91.00;;;;;;5005942;28;20064;-72
2023/06/27 09:39:06;;;;;;;6.18;0.77;;;22.10;91.50;;;;;;5009090;28;20030;-72
2023/06/27 09:41:46;;;;;;;2.92;0.50;;;22.10;91.90;;;;;;5026856;28;20041;-72
2023/06/27 09:44:17;;;;;;;4.10;0.55;;;22.20;91.70;;;;;;5006634;28;20038;-72
2023/06/27 09:46:45;;;;;;;2.38;0.63;;;22.20;91.80;;;;;;5006204;28;20033;-71
2023/06/27 09:49:10;;;;;;;3.30;1.00;;;22.20;91.80;;;;;;5026011;28;20085;-71
2023/06/27 09:51:37;;;;;;;6.00;0.22;;;22.30;91.70;;;;;;5006535;28;20049;-71
2023/06/27 09:54:03;;;;;;;3.97;0.45;;;22.40;91.60;;;;;;5006106;28;20034;-71
2023/06/27 09:56:30;;;;;;;3.53;0.55;;;22.60;91.10;;;;;;5007674;28;20088;-71
2023/06/27 09:58:56;;;;;;;2.83;0.30;;;22.60;91.40;;;;;;5007893;28;20690;-71
2023/06/27 10:01:26;;;;;;;3.33;0.80;;;22.80;91.50;;;;;;5007434;28;20521;-71
2023/06/27 10:03:51;;;;;;;1.73;0.50;;;22.90;91.40;;;;;;5024592;28;20392;-72
2023/06/27 10:06:17;;;;;;;4.25;0.52;;;22.90;90.90;;;;;;5025460;28;20041;-72
2023/06/27 10:08:42;;;;;;;1.75;0.32;;;23.20;91.40;;;;;;5025863;28;20096;-71
2023/06/27 10:11:08;;;;;;;2.83;0.68;;;23.40;91.50;;;;;;5008470;28;20037;-71
2023/06/27 10:13:34;;;;;;;4.95;0.45;;;23.70;90.50;;;;;;5008154;28;20037;-71
2023/06/27 10:16:02;;;;;;;1.58;0.30;;;23.80;90.30;;;;;;5025473;28;20390;-71
2023/06/27 10:18:27;;;;;;;2.53;0.60;;;23.90;90.40;;;;;;5008238;28;20080;-71
2023/06/27 10:20:55;;;;;;;2.28;0.30;;;23.80;88.90;;;;;;5007298;28;20521;-71
2023/06/27 10:23:21;;;;;;;5.10;0.80;;;23.80;89.20;;;;;;5025335;28;20087;-70
2023/06/27 10:25:47;;;;;;;2.33;0.40;;;23.80;90.10;;;;;;5024798;28;20033;-71
2023/06/27 10:28:14;;;;;;;3.03;0.50;;;23.90;89.70;;;;;;5025590;28;20041;-72
2023/06/27 10:30:44;;;;;;;2.15;0.43;;;24.10;88.60;;;;;;5006148;28;20040;-70
2023/06/27 10:33:21;;;;;;;;;;;24.20;88.40;;;;;;5026419;28;20401;-70
2023/06/27 10:35:53;;;;;;;1.30;0.60;;;24.30;89.70;;;;;;5024965;28;19936;-72
2023/06/27 10:38:20;;;;;;;1.05;0.20;;;24.50;89.40;;;;;;5025709;28;20159;-71
2023/06/27 10:40:58;;;;;;;5.05;0.45;;;24.50;89.30;;;;;;5025206;28;20029;-71
2023/06/27 10:43:38;;;;;;;3.97;0.40;;;24.50;88.40;;;;;;5004421;28;20033;-71
2023/06/27 10:46:08;;;;;;;4.03;0.95;;;24.50;89.70;;;;;;5022778;28;20029;-71
2023/06/27 10:48:58;;;;;;;3.25;0.57;;;24.60;89.90;;;;;;5025787;28;20034;-72
2023/06/27 10:51:32;;;;;;;4.28;0.75;;;24.70;86.90;;;;;;5004933;28;20046;-70
2023/06/27 10:54:11;;;;;;;5.35;0.45;;;24.90;87.70;;;;;;5004993;28;20076;-72
2023/06/27 10:56:51;;;;;;;4.95;0.73;;;25.10;87.90;;;;;;5022901;28;20045;-71
2023/06/27 10:59:19;;;;;;;5.22;0.85;;;25.30;84.40;;;;;;5024661;28;20041;-73
2023/06/27 11:01:50;;;;;;;4.18;0.63;;;25.30;86.70;;;;;;5006541;28;20076;-70
2023/06/27 11:04:16;;;;;;;2.85;0.55;;;25.40;86.10;;;;;;5009800;28;20033;-71
2023/06/27 11:06:45;;;;;;;1.35;0.50;;;25.50;84.70;;;;;;5007130;28;20057;-71
2023/06/27 11:09:17;;;;;;;1.85;0.32;;;25.50;83.60;;;;;;5006272;28;20038;-72
2023/06/27 11:12:09;;;;;;;0.68;0.25;;;25.40;83.50;;;;;;5023961;28;20061;-70
2023/06/27 11:14:40;;;;;;;1.30;0.30;;;25.30;83.10;;;;;;5004958;28;20614;-70
2023/06/27 11:17:06;;;;;;;1.52;0.52;;;25.30;83.10;;;;;;5023229;28;20731;-70
2023/06/27 11:19:34;;;;;;;2.28;0.60;;;25.40;84.50;;;;;;5008298;28;20030;-71
2023/06/27 11:22:01;;;;;;;4.78;0.60;;;25.50;84.00;;;;;;5007622;28;20033;-71
2023/06/27 11:24:29;;;;;;;2.72;0.20;;;25.40;84.50;;;;;;5026316;28;20041;-70
2023/06/27 11:26:55;;;;;;;1.77;0.50;;;25.20;82.50;;;;;;5025658;28;20040;-71
2023/06/27 11:29:21;;;;;;;3.35;0.50;;;25.10;83.00;;;;;;5005206;28;20048;-70
2023/06/27 11:31:48;;;;;;;1.85;0.10;;;24.90;83.80;;;;;;5005885;28;20025;-71
2023/06/27 11:34:15;;;;;;;2.78;0.45;;;24.90;85.30;;;;;;5025746;28;20048;-71
2023/06/27 11:36:41;;;;;;;1.20;0.40;;;24.90;86.10;;;;;;5010402;28;20157;-71
2023/06/27 11:39:12;;;;;;;1.67;0.40;;;24.80;84.50;;;;;;5029531;28;20494;-73
2023/06/27 11:41:39;;;;;;;2.97;0.65;;;24.90;85.20;;;;;;5011126;28;20448;-72
2023/06/27 11:44:09;;;;;;;7.80;0.75;;;25.00;84.60;;;;;;5011869;28;20581;-72
2023/06/27 11:46:36;;;;;;;;;;;25.00;82.50;;;;;;5030073;28;20060;-71
2023/06/27 11:49:01;;;;;;;2.95;0.40;;;25.00;83.00;;;;;;5029174;28;20007;-72
2023/06/27 11:51:38;;;;;;;5.93;1.20;;;25.10;83.00;;;;;;5028950;28;20124;-70
2023/06/27 11:54:07;;;;;;;2.13;0.50;;;25.00;80.60;;;;;;5011620;28;20060;-72
2023/06/27 11:56:33;;;;;;;3.30;0.40;;;24.80;83.20;;;;;;5011522;28;20033;-71
2023/06/27 11:59:00;;;;;;;2.20;0.80;;;24.80;83.20;;;;;;5011218;28;24762;-70
2023/06/27 12:01:27;;;;;;;7.28;0.70;;;24.90;81.40;;;;;;5010887;28;20041;-73
2023/06/27 12:03:53;;;;;;;3.35;0.20;;;24.90;82.10;;;;;;5012695;28;20029;-70
2023/06/27 12:06:25;;;;;;;1.60;0.30;;;24.80;81.80;;;;;;5011019;28;20045;-70
2023/06/27 12:08:52;;;;;;;2.97;0.70;;;24.80;83.00;;;;;;5027410;28;20092;-70
2023/06/27 12:11:17;;;;;;;3.05;0.80;;;24.80;82.10;;;;;;5010829;28;20536;-71
2023/06/27 12:13:43;;;;;;;4.60;0.45;;;24.90;81.50;;;;;;5010989;28;20045;-71
2023/06/27 12:16:27;;;;;;;2.25;0.43;;;25.00;81.90;;;;;;5029391;28;20055;-70
2023/06/27 12:19:01;;;;;;;3.50;0.50;;;25.00;82.00;;;;;;5008701;28;20045;-71
2023/06/27 12:21:27;;;;;;;4.13;0.52;;;25.10;81.90;;;;;;5008989;28;20029;-71
2023/06/27 12:23:53;;;;;;;3.05;0.60;;;25.10;82.30;;;;;;5011232;28;20058;-70
2023/06/27 12:26:19;;;;;;;5.72;0.75;;;25.20;82.40;;;;;;5028447;28;20130;-71
2023/06/27 12:28:57;;;;;;;2.80;0.50;;;25.10;80.80;;;;;;5010798;28;20140;-71
2023/06/27 12:31:22;;;;;;;5.80;0.40;;;24.90;81.70;;;;;;5007194;28;20037;-71
2023/06/27 12:33:50;;;;;;;2.67;0.43;;;24.90;82.00;;;;;;5010288;28;20095;-71
2023/06/27 12:36:17;;;;;;;1.20;0.45;;;24.70;81.40;;;;;;5011392;28;20041;-72
2023/06/27 12:38:43;;;;;;;2.72;0.50;;;24.60;81.80;;;;;;5010359;28;20040;-71
2023/06/27 12:41:08;;;;;;;1.80;0.20;;;24.50;81.70;;;;;;5011888;28;20059;-72
2023/06/27 12:43:34;;;;;;;2.50;0.50;;;24.50;82.30;;;;;;5011093;28;20420;-71
2023/06/27 12:46:01;;;;;;;2.05;0.52;;;24.60;82.10;;;;;;5028127;28;20029;-74